createdAt,value
2022-07-27T00:01:14.291Z,101488.00
2022-07-27T00:03:46.324Z,101490.63
2022-07-27T00:06:15.249Z,101488.34
2022-07-27T00:08:43.349Z,101485.41
2022-07-27T00:11:11.868Z,101489.41
2022-07-27T00:13:40.784Z,101489.41
2022-07-27T00:16:09.439Z,101494.13
2022-07-27T00:18:37.490Z,101486.81
2022-07-27T00:21:06.864Z,101482.13
2022-07-27T00:23:35.228Z,101492.53
2022-07-27T00:26:03.314Z,101488.03
2022-07-27T00:28:31.327Z,101491.84
2022-07-27T00:30:59.389Z,101499.31
2022-07-27T00:33:27.448Z,101493.94
2022-07-27T00:35:55.556Z,101493.06
2022-07-27T00:38:25.666Z,101492.03
2022-07-27T00:40:53.823Z,101493.25
2022-07-27T00:43:21.976Z,101490.50
2022-07-27T00:45:50.003Z,101488.75
2022-07-27T00:48:18.050Z,101490.66
2022-07-27T00:50:48.119Z,101494.31
2022-07-27T00:53:16.845Z,101499.16
2022-07-27T00:55:47.029Z,101494.47
2022-07-27T00:58:15.741Z,101494.66
2022-07-27T01:00:43.746Z,101493.94
2022-07-27T01:03:12.016Z,101497.75
2022-07-27T01:05:42.986Z,101496.06
2022-07-27T01:08:14.167Z,101500.91
2022-07-27T01:10:43.465Z,101496.41
2022-07-27T01:13:13.832Z,101499.88
2022-07-27T01:15:43.766Z,101502.81
2022-07-27T01:18:13.935Z,101491.03
2022-07-27T01:20:42.765Z,101491.19
2022-07-27T01:23:12.361Z,101496.56
2022-07-27T01:25:43.012Z,101494.84
2022-07-27T01:28:11.198Z,101487.94
2022-07-27T01:30:39.257Z,101496.25
2022-07-27T01:33:09.200Z,101494.34
2022-07-27T01:35:38.012Z,101489.84
2022-07-27T01:38:06.521Z,101487.41
2022-07-27T01:40:37.589Z,101493.81
2022-07-27T01:43:06.280Z,101490.34
2022-07-27T01:45:34.298Z,101489.66
2022-07-27T01:48:02.755Z,101486.91
2022-07-27T01:50:31.008Z,101482.53
2022-07-27T01:52:58.965Z,101484.59
2022-07-27T01:55:27.117Z,101493.97
2022-07-27T01:58:07.355Z,101489.44
2022-07-27T02:00:36.213Z,101484.44
2022-07-27T02:03:05.005Z,101496.56
2022-07-27T02:05:33.156Z,101495.00
2022-07-27T02:08:01.304Z,101496.25
2022-07-27T02:10:29.398Z,101496.41
2022-07-27T02:12:56.406Z,101491.19
2022-07-27T02:15:27.679Z,101496.75
2022-07-27T02:17:59.075Z,101498.16
2022-07-27T02:20:30.854Z,101493.97
2022-07-27T02:22:58.885Z,101499.91
2022-07-27T02:25:26.806Z,101492.78
2022-07-27T02:27:54.751Z,101493.13
2022-07-27T02:30:22.658Z,101494.34
2022-07-27T02:32:52.075Z,101485.16
2022-07-27T02:35:20.549Z,101485.66
2022-07-27T02:37:49.269Z,101488.59
2022-07-27T02:40:18.569Z,101479.78
2022-07-27T02:42:47.570Z,101490.16
2022-07-27T02:45:15.665Z,101489.47
2022-07-27T02:47:43.660Z,101484.44
2022-07-27T02:50:13.394Z,101488.09
2022-07-27T02:52:42.388Z,101489.47
2022-07-27T02:55:11.387Z,101488.78
2022-07-27T02:57:41.357Z,101492.91
2022-07-27T03:00:12.685Z,101491.19
2022-07-27T03:02:41.906Z,101487.88
2022-07-27T03:05:12.592Z,101488.03
2022-07-27T03:07:40.672Z,101489.41
2022-07-27T03:10:09.752Z,101486.78
2022-07-27T03:12:37.714Z,101500.16
2022-07-27T03:15:06.727Z,101493.91
2022-07-27T03:17:34.817Z,101496.16
2022-07-27T03:20:02.901Z,101493.72
2022-07-27T03:22:33.416Z,101495.63
2022-07-27T03:25:01.700Z,101490.59
2022-07-27T03:27:30.205Z,101489.88
2022-07-27T03:29:58.442Z,101495.59
2022-07-27T03:32:26.431Z,101497.66
2022-07-27T03:34:54.436Z,101488.63
2022-07-27T03:37:22.462Z,101491.59
2022-07-27T03:39:51.757Z,101499.03
2022-07-27T03:42:19.707Z,101508.72
2022-07-27T03:44:47.712Z,101502.47
2022-07-27T03:47:15.677Z,101504.56
2022-07-27T03:49:43.587Z,101500.22
2022-07-27T03:52:17.243Z,101502.28
2022-07-27T03:54:45.706Z,101501.75
2022-07-27T03:57:15.808Z,101505.41
2022-07-27T03:59:43.816Z,101505.00
2022-07-27T04:02:11.885Z,101505.19
2022-07-27T04:04:39.997Z,101502.75
2022-07-27T04:07:08.158Z,101505.69
2022-07-27T04:09:37.644Z,101515.19
2022-07-27T04:12:07.794Z,101516.22
2022-07-27T04:14:37.199Z,101514.31
2022-07-27T04:17:05.696Z,101514.66
2022-07-27T04:19:33.732Z,101520.53
2022-07-27T04:22:01.866Z,101525.19
2022-07-27T04:24:30.034Z,101523.44
2022-07-27T04:26:58.090Z,101519.09
2022-07-27T04:29:26.099Z,101525.50
2022-07-27T04:31:55.608Z,101526.34
2022-07-27T04:34:23.503Z,101521.16
2022-07-27T04:36:51.595Z,101523.06
2022-07-27T04:39:19.534Z,101525.81
2022-07-27T04:41:47.578Z,101531.53
2022-07-27T04:44:15.835Z,101528.75
2022-07-27T04:46:44.180Z,101527.72
2022-07-27T04:49:13.885Z,101534.84
2022-07-27T04:51:44.915Z,101533.09
2022-07-27T04:54:13.400Z,101526.84
2022-07-27T04:56:41.558Z,101534.13
2022-07-27T04:59:09.978Z,101534.13
2022-07-27T05:01:38.533Z,101537.78
2022-07-27T05:04:06.774Z,101535.88
2022-07-27T05:06:36.222Z,101539.19
2022-07-27T05:09:04.808Z,101544.41
2022-07-27T05:11:32.982Z,101541.31
2022-07-27T05:14:00.996Z,101545.00
2022-07-27T05:16:29.347Z,101541.06
2022-07-27T05:18:57.855Z,101544.91
2022-07-27T05:21:26.108Z,101544.09
2022-07-27T05:23:56.001Z,101549.22
2022-07-27T05:26:24.034Z,101552.75
2022-07-27T05:28:52.039Z,101552.38
2022-07-27T05:31:20.037Z,101554.66
2022-07-27T05:33:49.928Z,101551.59
2022-07-27T05:36:20.338Z,101552.06
2022-07-27T05:38:48.335Z,101565.03
2022-07-27T05:41:24.618Z,101558.75
2022-07-27T05:43:54.405Z,101558.88
2022-07-27T05:46:23.017Z,101559.66
2022-07-27T05:48:51.446Z,101575.38
2022-07-27T05:51:19.534Z,101575.31
2022-07-27T05:53:47.544Z,101577.50
2022-07-27T05:56:16.921Z,101581.59
2022-07-27T05:58:44.865Z,101577.31
2022-07-27T06:01:12.974Z,101583.53
2022-07-27T06:03:41.171Z,101581.53
2022-07-27T06:06:26.595Z,101577.81
2022-07-27T06:08:55.261Z,101582.28
2022-07-27T06:11:24.750Z,101585.69
2022-07-27T06:13:52.941Z,101583.19
2022-07-27T06:16:21.011Z,101590.59
2022-07-27T06:18:49.397Z,101586.41
2022-07-27T06:21:17.896Z,101577.00
2022-07-27T06:23:48.390Z,101590.25
2022-07-27T06:26:16.624Z,101590.59
2022-07-27T06:28:46.794Z,101591.19
2022-07-27T06:31:15.053Z,101583.97
2022-07-27T06:33:43.455Z,101588.56
2022-07-27T06:36:14.159Z,101582.00
2022-07-27T06:38:42.264Z,101581.66
2022-07-27T06:41:10.226Z,101580.31
2022-07-27T06:43:38.390Z,101589.03
2022-07-27T06:46:12.520Z,101585.19
2022-07-27T06:48:41.084Z,101583.63
2022-07-27T06:51:09.826Z,101579.63
2022-07-27T06:53:38.061Z,101583.09
2022-07-27T06:56:08.366Z,101576.47
2022-07-27T06:58:37.608Z,101586.34
2022-07-27T07:01:07.345Z,101578.69
2022-07-27T07:03:35.415Z,101583.88
2022-07-27T07:06:03.630Z,101586.13
2022-07-27T07:08:31.630Z,101587.50
2022-07-27T07:10:59.592Z,101583.28
2022-07-27T07:13:27.613Z,101597.31
2022-07-27T07:15:56.564Z,101593.97
2022-07-27T07:18:26.083Z,101590.06
2022-07-27T07:20:54.586Z,101586.50
2022-07-27T07:23:22.514Z,101591.13
2022-07-27T07:25:50.553Z,101592.97
2022-07-27T07:28:22.147Z,101589.63
2022-07-27T07:30:50.548Z,101591.81
2022-07-27T07:33:18.508Z,101599.25
2022-07-27T07:36:12.855Z,101597.22
2022-07-27T07:38:36.440Z,101600.28
2022-07-27T07:41:05.650Z,101597.63
2022-07-27T07:43:35.632Z,101601.19
2022-07-27T07:46:03.758Z,101598.47
2022-07-27T07:48:31.942Z,101600.28
2022-07-27T07:51:01.448Z,101598.06
2022-07-27T07:53:29.418Z,101591.94
2022-07-27T07:55:58.149Z,101598.44
2022-07-27T07:58:26.637Z,101603.47
2022-07-27T08:00:54.598Z,101600.75
2022-07-27T08:03:22.669Z,101600.81
2022-07-27T08:05:50.996Z,101596.16
2022-07-27T08:08:20.643Z,101608.75
2022-07-27T08:10:53.006Z,101603.03
2022-07-27T08:13:22.492Z,101600.78
2022-07-27T08:15:52.337Z,101608.88
2022-07-27T08:18:20.715Z,101606.13
2022-07-27T08:20:49.370Z,101612.84
2022-07-27T08:23:17.373Z,101609.22
2022-07-27T08:25:46.879Z,101614.66
2022-07-27T08:28:14.996Z,101612.81
2022-07-27T08:30:43.086Z,101603.19
2022-07-27T08:33:11.487Z,101610.41
2022-07-27T08:35:39.751Z,101606.38
2022-07-27T08:38:09.486Z,101608.63
2022-07-27T08:40:42.702Z,101608.25
2022-07-27T08:43:24.412Z,101602.06
2022-07-27T08:45:57.897Z,101604.28
2022-07-27T08:48:26.637Z,101612.06
2022-07-27T08:50:54.987Z,101611.28
2022-07-27T08:53:23.771Z,101606.13
2022-07-27T08:55:51.908Z,101612.38
2022-07-27T08:58:21.369Z,101614.97
2022-07-27T09:00:50.929Z,101608.03
2022-07-27T09:03:21.903Z,101604.63
2022-07-27T09:05:51.746Z,101613.97
2022-07-27T09:08:24.323Z,101620.63
2022-07-27T09:10:54.503Z,101614.09
2022-07-27T09:13:27.074Z,101621.97
2022-07-27T09:16:17.339Z,101621.22
2022-07-27T09:18:44.944Z,101616.97
2022-07-27T09:21:15.622Z,101625.94
2022-07-27T09:23:45.938Z,101624.47
2022-07-27T09:26:31.342Z,101622.16
2022-07-27T09:29:04.192Z,101624.13
2022-07-27T09:31:33.589Z,101624.16
2022-07-27T09:34:03.702Z,101621.69
2022-07-27T09:36:32.252Z,101610.84
2022-07-27T09:39:03.535Z,101607.56
2022-07-27T09:41:43.830Z,101609.50
2022-07-27T09:44:32.784Z,101604.97
2022-07-27T09:47:20.700Z,101606.06
2022-07-27T09:49:48.708Z,101602.41
2022-07-27T09:52:24.264Z,101603.91
2022-07-27T09:54:53.123Z,101598.94
2022-07-27T09:57:21.047Z,101601.03
2022-07-27T10:00:10.269Z,101600.59
2022-07-27T10:02:38.835Z,101594.16
2022-07-27T10:05:07.543Z,101602.97
2022-07-27T10:07:35.765Z,101605.56
2022-07-27T10:10:04.710Z,101597.00
2022-07-27T10:12:33.001Z,101608.63
2022-07-27T10:15:02.441Z,101607.00
2022-07-27T10:17:31.520Z,101610.66
2022-07-27T10:20:04.149Z,101620.34
2022-07-27T10:22:52.742Z,101615.44
2022-07-27T10:25:21.209Z,101615.44
2022-07-27T10:27:52.380Z,101627.06
2022-07-27T10:30:22.779Z,101621.47
2022-07-27T10:32:53.133Z,101612.66
2022-07-27T10:35:34.939Z,101615.44
2022-07-27T10:38:11.940Z,101623.53
2022-07-27T10:40:40.233Z,101623.25
2022-07-27T10:43:11.613Z,101622.56
2022-07-27T10:45:50.216Z,101617.41
2022-07-27T10:48:46.040Z,101609.03
2022-07-27T10:51:17.455Z,101620.78
2022-07-27T11:19:10.985Z,101609.34
2022-07-27T11:21:44.985Z,101607.41
2022-07-27T11:24:16.701Z,101599.91
2022-07-27T11:26:46.847Z,101594.72
2022-07-27T11:29:17.730Z,101589.13
2022-07-27T11:31:57.243Z,101582.97
2022-07-27T11:34:30.951Z,101584.13
2022-07-27T11:37:02.016Z,101577.28
2022-07-27T11:42:23.471Z,101564.97
2022-07-27T11:44:52.796Z,101564.66
2022-07-27T11:47:24.228Z,101569.06
2022-07-27T11:49:53.897Z,101566.31
2022-07-27T11:52:23.700Z,101578.22
2022-07-27T11:54:53.271Z,101563.09
2022-07-27T11:57:22.614Z,101564.00
2022-07-27T11:59:50.681Z,101558.31
2022-07-27T12:02:22.192Z,101563.75
2022-07-27T12:04:57.829Z,101565.09
2022-07-27T12:07:34.610Z,101567.28
2022-07-27T12:10:07.152Z,101555.72
2022-07-27T12:12:36.609Z,101553.34
2022-07-27T12:15:44.682Z,101544.38
2022-07-27T12:18:03.575Z,101551.91
2022-07-27T12:20:40.303Z,101557.53
2022-07-27T12:23:10.212Z,101552.56
2022-07-27T12:25:39.821Z,101559.22
2022-07-27T12:28:11.068Z,101552.75
2022-07-27T12:30:42.244Z,101552.50
2022-07-27T12:33:30.848Z,101549.94
2022-07-27T12:36:01.749Z,101546.28
2022-07-27T12:38:38.249Z,101546.03
2022-07-27T12:41:06.537Z,101536.75
2022-07-27T12:43:42.517Z,101539.34
2022-07-27T12:46:15.745Z,101537.22
2022-07-27T12:48:44.866Z,101536.34
2022-07-27T12:51:14.588Z,101526.28
2022-07-27T12:53:42.727Z,101519.84
2022-07-27T12:56:11.231Z,101525.91
2022-07-27T12:58:40.046Z,101536.00
2022-07-27T13:01:08.363Z,101535.81
2022-07-27T13:03:36.823Z,101529.13
2022-07-27T13:06:15.521Z,101520.97
2022-07-27T13:24:12.941Z,101531.78
2022-07-27T13:26:41.765Z,101539.28
2022-07-27T13:29:10.105Z,101541.69
2022-07-27T13:31:38.384Z,101544.25
2022-07-27T13:34:06.578Z,101542.34
2022-07-27T13:36:41.737Z,101546.00
2022-07-27T14:28:50.462Z,101518.69
2022-07-27T14:31:18.659Z,101508.84
2022-07-27T14:33:46.917Z,101503.94
2022-07-27T14:36:15.170Z,101505.47
2022-07-27T14:38:44.237Z,101493.44
2022-07-27T14:41:12.219Z,101496.44
2022-07-27T14:43:40.432Z,101503.28
2022-07-27T14:46:09.852Z,101500.47
2022-07-27T14:49:05.084Z,101495.50
2022-07-27T14:51:28.135Z,101488.59
2022-07-27T14:53:56.585Z,101487.03
2022-07-27T14:56:24.781Z,101492.84
2022-07-27T14:58:52.827Z,101498.09
2022-07-27T15:01:22.274Z,101488.88
2022-07-27T15:03:50.445Z,101487.56
2022-07-27T15:06:18.603Z,101487.75
2022-07-27T15:08:49.104Z,101484.28
2022-07-27T15:11:17.078Z,101491.78
2022-07-27T15:13:45.488Z,101492.38
2022-07-27T15:16:14.070Z,101488.53
2022-07-27T15:18:46.185Z,101491.34
2022-07-27T15:46:49.158Z,101453.66
2022-07-27T15:49:18.044Z,101456.72
2022-07-27T15:51:48.019Z,101451.63
2022-07-27T15:54:16.431Z,101451.88
2022-07-27T15:56:44.357Z,101447.84
2022-07-27T15:59:12.748Z,101446.59
2022-07-27T16:01:41.169Z,101450.00
2022-07-27T16:04:11.770Z,101447.03
2022-07-27T16:06:39.830Z,101436.94
2022-07-27T16:09:10.241Z,101447.88
2022-07-27T16:11:39.197Z,101442.50
2022-07-27T16:14:07.438Z,101443.97
2022-07-27T16:16:35.683Z,101437.72
2022-07-27T16:19:12.854Z,101431.72
2022-07-27T16:21:54.297Z,101432.97
2022-07-27T16:24:24.073Z,101433.09
2022-07-27T16:26:52.321Z,101432.41
2022-07-27T16:29:21.111Z,101421.88
2022-07-27T16:31:54.802Z,101424.66
2022-07-27T16:34:22.943Z,101424.38
2022-07-27T16:36:52.416Z,101432.72
2022-07-27T16:39:20.993Z,101429.28
2022-07-27T16:41:50.317Z,101434.88
2022-07-27T16:44:19.976Z,101434.00
2022-07-27T16:46:49.454Z,101430.34
2022-07-27T16:49:18.387Z,101432.47
2022-07-27T16:51:47.879Z,101430.72
2022-07-27T16:54:17.227Z,101439.78
2022-07-27T16:56:45.077Z,101433.72
2022-07-27T16:59:13.411Z,101425.53
2022-07-27T17:01:41.453Z,101425.75
2022-07-27T17:04:09.473Z,101421.25
2022-07-27T17:06:37.607Z,101428.75
2022-07-27T17:09:05.502Z,101422.31
2022-07-27T17:11:37.212Z,101413.94
2022-07-27T17:14:07.012Z,101411.06
2022-07-27T17:16:36.078Z,101420.50
2022-07-27T17:19:03.985Z,101420.69
2022-07-27T17:21:32.215Z,101420.19
2022-07-27T17:24:00.174Z,101420.63
2022-07-27T17:26:28.016Z,101414.31
2022-07-27T17:28:57.248Z,101422.53
2022-07-27T17:31:25.482Z,101424.59
2022-07-27T17:33:54.566Z,101427.22
2022-07-27T17:36:22.931Z,101419.03
2022-07-27T17:38:51.487Z,101422.88
2022-07-27T17:41:24.479Z,101418.34
2022-07-27T17:43:53.501Z,101423.47
2022-07-27T17:46:24.630Z,101425.22
2022-07-27T17:48:53.474Z,101419.34
2022-07-27T17:51:23.069Z,101424.91
2022-07-27T17:53:51.104Z,101421.44
2022-07-27T17:56:19.352Z,101425.31
2022-07-27T17:58:48.114Z,101421.84
2022-07-27T18:01:16.257Z,101428.84
2022-07-27T18:03:45.697Z,101425.44
2022-07-27T18:06:13.644Z,101423.38
2022-07-27T18:08:41.472Z,101418.22
2022-07-27T18:11:13.428Z,101422.44
2022-07-27T18:13:41.835Z,101416.59
2022-07-27T18:16:11.950Z,101419.56
2022-07-27T18:18:41.327Z,101422.72
2022-07-27T18:21:11.011Z,101422.94
2022-07-27T18:23:39.107Z,101423.69
2022-07-27T18:26:07.291Z,101428.78
2022-07-27T18:28:39.284Z,101429.34
2022-07-27T18:31:07.715Z,101426.25
2022-07-27T18:33:36.990Z,101432.88
2022-07-27T18:36:06.244Z,101433.94
2022-07-27T18:38:35.662Z,101423.84
2022-07-27T18:41:03.852Z,101427.03
2022-07-27T18:43:32.125Z,101414.34
2022-07-27T18:46:00.830Z,101417.31
2022-07-27T18:48:29.234Z,101425.84
2022-07-27T18:50:57.744Z,101429.69
2022-07-27T18:53:25.657Z,101428.16
2022-07-27T18:55:56.743Z,101429.22
2022-07-27T18:58:25.754Z,101433.22
2022-07-27T19:00:54.565Z,101432.75
2022-07-27T19:03:24.565Z,101432.09
2022-07-27T19:05:54.841Z,101434.53
2022-07-27T19:08:23.878Z,101430.06
2022-07-27T19:10:52.410Z,101431.28
2022-07-27T19:13:21.698Z,101426.78
2022-07-27T19:15:52.569Z,101442.31
2022-07-27T19:18:20.706Z,101439.03
2022-07-27T19:20:48.917Z,101431.06
2022-07-27T19:23:17.069Z,101433.19
2022-07-27T19:25:48.800Z,101441.88
2022-07-27T19:28:19.449Z,101437.78
2022-07-27T19:30:51.887Z,101439.47
2022-07-27T19:33:20.491Z,101440.41
2022-07-27T19:35:50.514Z,101444.22
2022-07-27T19:38:18.391Z,101442.84
2022-07-27T19:40:46.782Z,101447.91
2022-07-27T19:43:16.248Z,101451.94
2022-07-27T19:45:44.612Z,101450.41
2022-07-27T19:48:13.922Z,101450.56
2022-07-27T19:50:41.991Z,101450.28
2022-07-27T19:53:10.635Z,101453.25
2022-07-27T19:55:38.748Z,101458.28
2022-07-27T19:58:06.717Z,101462.50
2022-07-27T20:00:34.792Z,101463.91
2022-07-27T20:03:03.278Z,101462.38
2022-07-27T20:05:38.864Z,101463.59
2022-07-27T20:08:07.877Z,101465.22
2022-07-27T20:10:35.873Z,101461.75
2022-07-27T20:13:04.940Z,101461.22
2022-07-27T20:15:33.039Z,101464.38
2022-07-27T20:18:01.267Z,101464.06
2022-07-27T20:20:30.246Z,101469.13
2022-07-27T20:22:59.575Z,101471.03
2022-07-27T20:25:27.516Z,101473.84
2022-07-27T20:27:55.474Z,101472.25
2022-07-27T20:30:23.447Z,101473.69
2022-07-27T20:32:51.684Z,101476.81
2022-07-27T20:35:20.040Z,101468.66
2022-07-27T20:37:48.492Z,101477.38
2022-07-27T20:40:19.356Z,101470.94
2022-07-27T20:42:48.481Z,101476.16
2022-07-27T20:45:16.403Z,101478.25
2022-07-27T20:47:44.857Z,101483.13
2022-07-27T20:50:14.724Z,101485.03
2022-07-27T20:52:43.998Z,101482.59
2022-07-27T20:55:12.365Z,101489.38
2022-07-27T20:57:41.689Z,101484.03
2022-07-27T21:00:13.725Z,101473.59
2022-07-27T21:02:41.803Z,101479.19
2022-07-27T21:05:10.468Z,101472.09
2022-07-27T21:07:38.850Z,101478.16
2022-07-27T21:10:08.325Z,101476.81
2022-07-27T21:12:36.357Z,101481.34
2022-07-27T21:15:12.831Z,101481.50
2022-07-27T21:17:41.504Z,101477.66
2022-07-27T21:20:10.505Z,101478.19
2022-07-27T21:22:38.501Z,101477.69
2022-07-27T21:25:06.939Z,101482.69
2022-07-27T21:27:35.405Z,101485.66
2022-07-27T21:30:03.381Z,101489.66
2022-07-27T21:32:33.715Z,101487.94
2022-07-27T21:35:01.735Z,101492.06
2022-07-27T21:37:35.271Z,101497.78
2022-07-27T21:40:03.153Z,101489.66
2022-07-27T21:42:31.782Z,101490.69
2022-07-27T21:45:00.322Z,101485.50
2022-07-27T21:47:28.276Z,101486.34
2022-07-27T21:49:57.498Z,101488.09
2022-07-27T21:52:25.404Z,101486.69
2022-07-27T21:54:53.449Z,101484.28
2022-07-27T21:57:21.317Z,101482.72
2022-07-27T21:59:49.182Z,101483.94
2022-07-27T22:02:17.449Z,101483.25
2022-07-27T22:04:45.465Z,101482.56
2022-07-27T22:07:19.073Z,101476.13
2022-07-27T22:09:47.607Z,101477.72
2022-07-27T22:12:15.487Z,101480.81
2022-07-27T22:14:43.494Z,101487.72
2022-07-27T22:17:11.386Z,101486.19
2022-07-27T22:19:39.238Z,101494.84
2022-07-27T22:22:07.065Z,101492.41
2022-07-27T22:24:36.244Z,101489.81
2022-07-27T22:27:04.226Z,101493.97
2022-07-27T22:29:34.771Z,101498.75
2022-07-27T22:32:02.919Z,101493.41
2022-07-27T22:34:30.800Z,101495.47
2022-07-27T22:36:58.555Z,101485.59
2022-07-27T22:39:26.509Z,101490.44
2022-07-27T22:41:55.687Z,101491.31
2022-07-27T22:44:23.546Z,101492.00
2022-07-27T22:46:51.361Z,101494.94
2022-07-27T22:49:19.328Z,101490.63
2022-07-27T22:51:49.389Z,101489.75
2022-07-27T22:54:20.970Z,101495.44
2022-07-27T22:56:49.344Z,101499.25
2022-07-27T22:59:18.561Z,101502.03
2022-07-27T23:01:48.981Z,101503.22
2022-07-27T23:04:18.326Z,101500.63
2022-07-27T23:06:46.628Z,101501.69
2022-07-27T23:09:14.679Z,101512.06
2022-07-27T23:11:43.725Z,101509.44
2022-07-27T23:14:11.988Z,101510.63
2022-07-27T23:16:43.384Z,101520.84
2022-07-27T23:19:11.759Z,101516.53
2022-07-27T23:21:41.808Z,101514.97
2022-07-27T23:24:11.188Z,101516.00
2022-07-27T23:26:39.627Z,101505.94
2022-07-27T23:29:07.549Z,101505.06
2022-07-27T23:31:35.591Z,101508.00
2022-07-27T23:34:04.973Z,101514.41
2022-07-27T23:36:32.902Z,101510.25
2022-07-27T23:39:00.839Z,101505.91
2022-07-27T23:41:28.833Z,101505.03
2022-07-27T23:43:56.769Z,101503.31
2022-07-27T23:46:24.600Z,101505.41
2022-07-27T23:48:52.485Z,101494.66
2022-07-27T23:51:22.045Z,101505.72
2022-07-27T23:53:49.959Z,101503.47
2022-07-27T23:56:17.818Z,101494.44
2022-07-27T23:58:45.892Z,101502.91
